sensor_id;sensor_type;location;lat;lon;timestamp;pressure;altitude;pressure_sealevel;temperature;humidity
29903;BME280;30288;50.514;9.678;2023-03-18T00:00:14;98191.22;;;5.77;100.00
29903;BME280;30288;50.514;9.678;2023-03-18T00:02:20;98202.91;;;5.75;100.00
29903;BME280;30288;50.514;9.678;2023-03-18T00:04:27;98193.84;;;5.69;100.00
29903;BME280;30288;50.514;9.678;2023-03-18T00:06:35;98203.88;;;5.68;100.00
29903;BME280;30288;50.514;9.678;2023-03-18T00:08:40;98193.88;;;5.68;100.00
29903;BME280;30288;50.514;9.678;2023-03-18T00:10:50;98202.13;;;5.71;100.00
29903;BME280;30288;50.514;9.678;2023-03-18T00:12:55;98203.94;;;5.65;100.00
29903;BME280;30288;50.514;9.678;2023-03-18T00:15:00;98196.38;;;5.68;100.00
29903;BME280;30288;50.514;9.678;2023-03-18T00:17:05;98199.72;;;5.67;100.00
29903;BME280;30288;50.514;9.678;2023-03-18T00:19:10;98199.69;;;5.70;100.00
29903;BME280;30288;50.514;9.678;2023-03-18T00:21:18;98204.59;;;5.73;100.00
29903;BME280;30288;50.514;9.678;2023-03-18T00:23:25;98207.84;;;5.78;100.00
29903;BME280;30288;50.514;9.678;2023-03-18T00:25:30;98210.34;;;5.80;100.00
29903;BME280;30288;50.514;9.678;2023-03-18T00:27:36;98210.34;;;5.78;100.00
29903;BME280;30288;50.514;9.678;2023-03-18T00:29:42;98213.75;;;5.74;100.00
29903;BME280;30288;50.514;9.678;2023-03-18T00:31:47;98210.44;;;5.73;100.00
29903;BME280;30288;50.514;9.678;2023-03-18T00:33:55;98214.53;;;5.76;100.00
29903;BME280;30288;50.514;9.678;2023-03-18T00:35:59;98215.34;;;5.80;100.00
29903;BME280;30288;50.514;9.678;2023-03-18T00:38:07;98219.44;;;5.82;100.00
29903;BME280;30288;50.514;9.678;2023-03-18T00:40:21;98228.53;;;5.86;100.00
29903;BME280;30288;50.514;9.678;2023-03-18T00:42:32;98231.81;;;5.91;100.00
29903;BME280;30288;50.514;9.678;2023-03-18T00:44:40;98233.38;;;5.97;100.00
29903;BME280;30288;50.514;9.678;2023-03-18T00:46:46;98232.38;;;6.05;100.00
29903;BME280;30288;50.514;9.678;2023-03-18T00:48:54;98230.63;;;6.10;100.00
29903;BME280;30288;50.514;9.678;2023-03-18T00:50:59;98230.72;;;6.04;100.00
29903;BME280;30288;50.514;9.678;2023-03-18T00:53:07;98238.16;;;6.09;100.00
29903;BME280;30288;50.514;9.678;2023-03-18T00:55:12;98234.72;;;6.14;100.00
29903;BME280;30288;50.514;9.678;2023-03-18T00:57:17;98239.63;;;6.19;100.00
29903;BME280;30288;50.514;9.678;2023-03-18T00:59:22;98245.38;;;6.23;100.00
29903;BME280;30288;50.514;9.678;2023-03-18T01:01:29;98243.63;;;6.28;100.00
29903;BME280;30288;50.514;9.678;2023-03-18T01:03:34;98243.53;;;6.34;100.00
29903;BME280;30288;50.514;9.678;2023-03-18T01:05:40;98240.06;;;6.41;100.00
29903;BME280;30288;50.514;9.678;2023-03-18T01:07:46;98236.59;;;6.46;100.00
29903;BME280;30288;50.514;9.678;2023-03-18T01:09:54;98234.88;;;6.50;100.00
29903;BME280;30288;50.514;9.678;2023-03-18T01:11:59;98236.53;;;6.51;100.00
29903;BME280;30288;50.514;9.678;2023-03-18T01:14:04;98233.16;;;6.52;100.00
29903;BME280;30288;50.514;9.678;2023-03-18T01:16:09;98226.38;;;6.57;100.00
29903;BME280;30288;50.514;9.678;2023-03-18T01:18:15;98226.34;;;6.60;100.00
29903;BME280;30288;50.514;9.678;2023-03-18T01:20:20;98229.63;;;6.62;100.00
29903;BME280;30288;50.514;9.678;2023-03-18T01:22:28;98232.84;;;6.67;100.00
29903;BME280;30288;50.514;9.678;2023-03-18T01:24:34;98224.44;;;6.71;100.00
29903;BME280;30288;50.514;9.678;2023-03-18T01:26:43;98219.41;;;6.73;100.00
29903;BME280;30288;50.514;9.678;2023-03-18T01:28:48;98216.88;;;6.74;100.00
29903;BME280;30288;50.514;9.678;2023-03-18T01:30:54;98217.66;;;6.76;100.00
29903;BME280;30288;50.514;9.678;2023-03-18T01:33:00;98220.97;;;6.78;100.00
29903;BME280;30288;50.514;9.678;2023-03-18T01:35:07;98232.56;;;6.82;100.00
29903;BME280;30288;50.514;9.678;2023-03-18T01:37:19;98235.03;;;6.84;100.00
29903;BME280;30288;50.514;9.678;2023-03-18T01:39:39;98234.19;;;6.83;100.00
29903;BME280;30288;50.514;9.678;2023-03-18T01:41:54;98220.03;;;6.82;100.00
29903;BME280;30288;50.514;9.678;2023-03-18T01:44:06;98221.69;;;6.83;100.00
29903;BME280;30288;50.514;9.678;2023-03-18T01:46:33;98220.88;;;6.81;100.00
29903;BME280;30288;50.514;9.678;2023-03-18T01:48:39;98230.03;;;6.82;100.00
29903;BME280;30288;50.514;9.678;2023-03-18T01:50:50;98230.91;;;6.81;100.00
29903;BME280;30288;50.514;9.678;2023-03-18T01:53:00;98242.69;;;6.76;100.00
29903;BME280;30288;50.514;9.678;2023-03-18T01:55:12;98240.19;;;6.76;100.00
29903;BME280;30288;50.514;9.678;2023-03-18T01:57:21;98239.41;;;6.74;100.00
29903;BME280;30288;50.514;9.678;2023-03-18T01:59:31;98246.91;;;6.74;100.00
29903;BME280;30288;50.514;9.678;2023-03-18T02:01:41;98251.03;;;6.75;100.00
29903;BME280;30288;50.514;9.678;2023-03-18T02:03:49;98251.03;;;6.75;100.00
29903;BME280;30288;50.514;9.678;2023-03-18T02:05:55;98253.50;;;6.77;100.00
29903;BME280;30288;50.514;9.678;2023-03-18T02:08:02;98256.00;;;6.78;100.00
29903;BME280;30288;50.514;9.678;2023-03-18T02:10:11;98260.09;;;6.82;100.00
29903;BME280;30288;50.514;9.678;2023-03-18T02:12:24;98262.59;;;6.82;100.00
29903;BME280;30288;50.514;9.678;2023-03-18T02:14:33;98266.78;;;6.80;100.00
29903;BME280;30288;50.514;9.678;2023-03-18T02:16:44;98273.44;;;6.81;100.00
29903;BME280;30288;50.514;9.678;2023-03-18T02:18:55;98262.47;;;6.88;100.00
29903;BME280;30288;50.514;9.678;2023-03-18T02:21:18;98264.09;;;6.89;100.00
29903;BME280;30288;50.514;9.678;2023-03-18T02:23:40;98265.75;;;6.90;100.00
29903;BME280;30288;50.514;9.678;2023-03-18T02:25:53;98265.66;;;6.95;100.00
29903;BME280;30288;50.514;9.678;2023-03-18T02:28:06;98266.34;;;7.01;100.00
29903;BME280;30288;50.514;9.678;2023-03-18T02:30:16;98272.09;;;7.05;100.00
29903;BME280;30288;50.514;9.678;2023-03-18T02:32:26;98263.66;;;7.11;100.00
29903;BME280;30288;50.514;9.678;2023-03-18T02:34:32;98256.88;;;7.16;100.00
29903;BME280;30288;50.514;9.678;2023-03-18T02:36:39;98250.78;;;7.26;100.00
29903;BME280;30288;50.514;9.678;2023-03-18T02:38:46;98258.94;;;7.35;100.00
29903;BME280;30288;50.514;9.678;2023-03-18T02:40:57;98250.56;;;7.36;100.00
29903;BME280;30288;50.514;9.678;2023-03-18T02:43:20;98258.09;;;7.35;100.00
29903;BME280;30288;50.514;9.678;2023-03-18T02:45:37;98261.47;;;7.34;100.00
29903;BME280;30288;50.514;9.678;2023-03-18T02:47:48;98262.28;;;7.34;100.00
29903;BME280;30288;50.514;9.678;2023-03-18T02:49:56;98266.38;;;7.37;100.00
29903;BME280;30288;50.514;9.678;2023-03-18T02:52:03;98269.69;;;7.39;100.00
29903;BME280;30288;50.514;9.678;2023-03-18T02:54:12;98264.59;;;7.42;100.00
29903;BME280;30288;50.514;9.678;2023-03-18T02:56:17;98263.84;;;7.40;100.00
29903;BME280;30288;50.514;9.678;2023-03-18T02:58:25;98255.50;;;7.38;100.00
29903;BME280;30288;50.514;9.678;2023-03-18T03:00:34;98252.97;;;7.41;100.00
29903;BME280;30288;50.514;9.678;2023-03-18T03:02:39;98255.50;;;7.38;100.00
29903;BME280;30288;50.514;9.678;2023-03-18T03:04:45;98253.00;;;7.38;100.00
29903;BME280;30288;50.514;9.678;2023-03-18T03:06:54;98254.59;;;7.42;100.00
29903;BME280;30288;50.514;9.678;2023-03-18T03:09:14;98257.81;;;7.47;100.00
29903;BME280;30288;50.514;9.678;2023-03-18T03:11:20;98257.88;;;7.44;100.00
29903;BME280;30288;50.514;9.678;2023-03-18T03:13:31;98269.69;;;7.39;100.00
29903;BME280;30288;50.514;9.678;2023-03-18T03:15:37;98266.47;;;7.34;100.00
29903;BME280;30288;50.514;9.678;2023-03-18T03:17:44;98271.47;;;7.34;100.00
29903;BME280;30288;50.514;9.678;2023-03-18T03:19:51;98268.22;;;7.30;100.00
29903;BME280;30288;50.514;9.678;2023-03-18T03:21:57;98271.69;;;7.25;100.00
29903;BME280;30288;50.514;9.678;2023-03-18T03:24:05;98271.75;;;7.22;100.00
29903;BME280;30288;50.514;9.678;2023-03-18T03:26:14;98270.09;;;7.21;100.00
29903;BME280;30288;50.514;9.678;2023-03-18T03:28:20;98270.09;;;7.21;100.00
29903;BME280;30288;50.514;9.678;2023-03-18T03:30:28;98260.00;;;7.24;100.00
29903;BME280;30288;50.514;9.678;2023-03-18T03:32:34;98261.66;;;7.25;100.00
29903;BME280;30288;50.514;9.678;2023-03-18T03:34:40;98263.31;;;7.26;100.00
29903;BME280;30288;50.514;9.678;2023-03-18T03:36:46;98265.78;;;7.27;100.00
29903;BME280;30288;50.514;9.678;2023-03-18T03:38:51;98264.16;;;7.25;100.00
29903;BME280;30288;50.514;9.678;2023-03-18T03:40:56;98266.75;;;7.22;100.00
29903;BME280;30288;50.514;9.678;2023-03-18T03:43:02;98272.63;;;7.21;100.00
29903;BME280;30288;50.514;9.678;2023-03-18T03:45:09;98263.47;;;7.18;100.00
29903;BME280;30288;50.514;9.678;2023-03-18T03:47:18;98265.16;;;7.18;100.00
29903;BME280;30288;50.514;9.678;2023-03-18T03:49:24;98263.38;;;7.23;100.00
29903;BME280;30288;50.514;9.678;2023-03-18T03:51:30;98264.25;;;7.22;100.00
29903;BME280;30288;50.514;9.678;2023-03-18T03:53:35;98265.94;;;7.21;100.00
29903;BME280;30288;50.514;9.678;2023-03-18T03:55:40;98266.75;;;7.22;100.00
29903;BME280;30288;50.514;9.678;2023-03-18T03:57:46;98271.75;;;7.22;100.00
29903;BME280;30288;50.514;9.678;2023-03-18T03:59:52;98275.13;;;7.21;100.00
29903;BME280;30288;50.514;9.678;2023-03-18T04:02:22;98265.16;;;7.18;100.00
29903;BME280;30288;50.514;9.678;2023-03-18T04:04:29;98266.88;;;7.16;100.00
29903;BME280;30288;50.514;9.678;2023-03-18T04:06:36;98270.31;;;7.12;100.00
29903;BME280;30288;50.514;9.678;2023-03-18T04:08:41;98268.66;;;7.11;100.00
29903;BME280;30288;50.514;9.678;2023-03-18T04:10:47;98266.25;;;7.06;100.00
29903;BME280;30288;50.514;9.678;2023-03-18T04:12:52;98275.44;;;7.06;100.00
29903;BME280;30288;50.514;9.678;2023-03-18T04:14:57;98268.00;;;7.02;100.00
29903;BME280;30288;50.514;9.678;2023-03-18T04:17:03;98262.19;;;7.00;100.00
29903;BME280;30288;50.514;9.678;2023-03-18T04:19:12;98263.84;;;7.01;100.00
29903;BME280;30288;50.514;9.678;2023-03-18T04:21:18;98268.91;;;6.98;100.00
29903;BME280;30288;50.514;9.678;2023-03-18T04:23:27;98272.28;;;6.97;100.00
29903;BME280;30288;50.514;9.678;2023-03-18T04:25:34;98265.63;;;6.96;100.00
29903;BME280;30288;50.514;9.678;2023-03-18T04:27:40;98267.31;;;6.94;100.00
29903;BME280;30288;50.514;9.678;2023-03-18T04:29:47;98258.97;;;6.95;100.00
29903;BME280;30288;50.514;9.678;2023-03-18T04:31:54;98252.31;;;6.94;100.00
29903;BME280;30288;50.514;9.678;2023-03-18T04:34:00;98253.88;;;6.98;100.00
29903;BME280;30288;50.514;9.678;2023-03-18T04:36:09;98250.59;;;6.96;100.00
29903;BME280;30288;50.514;9.678;2023-03-18T04:38:14;98253.88;;;6.98;100.00
29903;BME280;30288;50.514;9.678;2023-03-18T04:40:21;98251.44;;;6.97;100.00
29903;BME280;30288;50.514;9.678;2023-03-18T04:42:27;98252.25;;;6.97;100.00
29903;BME280;30288;50.514;9.678;2023-03-18T04:44:32;98250.53;;;6.99;100.00
29903;BME280;30288;50.514;9.678;2023-03-18T04:46:39;98253.00;;;7.02;100.00
29903;BME280;30288;50.514;9.678;2023-03-18T04:48:45;98252.19;;;7.00;100.00
29903;BME280;30288;50.514;9.678;2023-03-18T04:50:51;98245.53;;;6.99;100.00
29903;BME280;30288;50.514;9.678;2023-03-18T04:53:02;98248.03;;;6.99;100.00
29903;BME280;30288;50.514;9.678;2023-03-18T04:55:09;98249.75;;;6.97;100.00
29903;BME280;30288;50.514;9.678;2023-03-18T04:57:16;98248.03;;;6.99;100.00
29903;BME280;30288;50.514;9.678;2023-03-18T04:59:27;98252.94;;;7.04;100.00
29903;BME280;30288;50.514;9.678;2023-03-18T05:01:35;98252.06;;;7.07;100.00
29903;BME280;30288;50.514;9.678;2023-03-18T05:03:41;98254.47;;;7.10;100.00
29903;BME280;30288;50.514;9.678;2023-03-18T05:05:49;98246.97;;;7.10;100.00
29903;BME280;30288;50.514;9.678;2023-03-18T05:08:01;98256.78;;;7.19;100.00
29903;BME280;30288;50.514;9.678;2023-03-18T05:10:09;98256.66;;;7.25;100.00
29903;BME280;30288;50.514;9.678;2023-03-18T05:12:15;98250.81;;;7.24;100.00
29903;BME280;30288;50.514;9.678;2023-03-18T05:14:21;98255.09;;;7.21;100.00
29903;BME280;30288;50.514;9.678;2023-03-18T05:16:28;98256.03;;;7.15;100.00
29903;BME280;30288;50.514;9.678;2023-03-18T05:18:34;98259.44;;;7.13;100.00
29903;BME280;30288;50.514;9.678;2023-03-18T05:20:40;98250.91;;;7.21;100.00
29903;BME280;30288;50.514;9.678;2023-03-18T05:22:49;98260.09;;;7.21;100.00
29903;BME280;30288;50.514;9.678;2023-03-18T05:25:08;98258.56;;;7.14;100.00
29903;BME280;30288;50.514;9.678;2023-03-18T05:27:16;98257.00;;;7.10;100.00
29903;BME280;30288;50.514;9.678;2023-03-18T05:29:31;98266.19;;;7.09;100.00
29903;BME280;30288;50.514;9.678;2023-03-18T05:32:03;98273.78;;;7.04;100.00
29903;BME280;30288;50.514;9.678;2023-03-18T05:34:09;98272.97;;;7.04;100.00
29903;BME280;30288;50.514;9.678;2023-03-18T05:36:20;98277.13;;;7.03;100.00
29903;BME280;30288;50.514;9.678;2023-03-18T05:38:32;98276.28;;;7.04;100.00
29903;BME280;30288;50.514;9.678;2023-03-18T05:40:41;98285.47;;;7.04;100.00
29903;BME280;30288;50.514;9.678;2023-03-18T05:42:54;98286.31;;;7.04;100.00
29903;BME280;30288;50.514;9.678;2023-03-18T05:45:10;98283.81;;;7.04;100.00
29903;BME280;30288;50.514;9.678;2023-03-18T05:47:23;98299.56;;;7.08;100.00
29903;BME280;30288;50.514;9.678;2023-03-18T05:49:39;98301.38;;;7.03;100.00
29903;BME280;30288;50.514;9.678;2023-03-18T05:51:52;98299.75;;;7.00;100.00
29903;BME280;30288;50.514;9.678;2023-03-18T05:54:11;98308.94;;;6.98;100.00
29903;BME280;30288;50.514;9.678;2023-03-18T05:56:21;98308.94;;;6.98;100.00
29903;BME280;30288;50.514;9.678;2023-03-18T05:58:31;98309.84;;;6.97;100.00
29903;BME280;30288;50.514;9.678;2023-03-18T06:00:54;98305.75;;;6.93;100.00
29903;BME280;30288;50.514;9.678;2023-03-18T06:03:01;98309.09;;;6.92;100.00
29903;BME280;30288;50.514;9.678;2023-03-18T06:05:08;98314.09;;;6.92;100.00
29903;BME280;30288;50.514;9.678;2023-03-18T06:07:14;98308.28;;;6.92;100.00
29903;BME280;30288;50.514;9.678;2023-03-18T06:09:21;98310.91;;;6.84;100.00
29903;BME280;30288;50.514;9.678;2023-03-18T06:11:30;98307.63;;;6.82;100.00
29903;BME280;30288;50.514;9.678;2023-03-18T06:13:35;98314.19;;;6.88;100.00
29903;BME280;30288;50.514;9.678;2023-03-18T06:15:41;98304.13;;;6.89;100.00
29903;BME280;30288;50.514;9.678;2023-03-18T06:17:50;98303.91;;;7.01;100.00
29903;BME280;30288;50.514;9.678;2023-03-18T06:19:55;98295.97;;;7.21;100.00
29903;BME280;30288;50.514;9.678;2023-03-18T06:22:00;98299.19;;;7.63;100.00
29903;BME280;30288;50.514;9.678;2023-03-18T06:24:06;98306.31;;;7.80;100.00
29903;BME280;30288;50.514;9.678;2023-03-18T06:26:13;98313.44;;;7.97;100.00
29903;BME280;30288;50.514;9.678;2023-03-18T06:28:24;98326.63;;;8.05;100.00
29903;BME280;30288;50.514;9.678;2023-03-18T06:30:33;98316.44;;;8.11;100.00
29903;BME280;30288;50.514;9.678;2023-03-18T06:32:38;98319.81;;;8.10;100.00
29903;BME280;30288;50.514;9.678;2023-03-18T06:34:44;98320.03;;;8.01;100.00
29903;BME280;30288;50.514;9.678;2023-03-18T06:36:49;98325.03;;;8.01;100.00
29903;BME280;30288;50.514;9.678;2023-03-18T06:38:55;98329.84;;;8.10;100.00
29903;BME280;30288;50.514;9.678;2023-03-18T06:41:01;98332.97;;;8.18;100.00
29903;BME280;30288;50.514;9.678;2023-03-18T06:43:17;98329.56;;;8.22;100.00
29903;BME280;30288;50.514;9.678;2023-03-18T06:45:26;98336.91;;;8.29;100.00
29903;BME280;30288;50.514;9.678;2023-03-18T06:47:37;98347.44;;;8.42;100.00
29903;BME280;30288;50.514;9.678;2023-03-18T06:49:44;98347.22;;;8.51;100.00
29903;BME280;30288;50.514;9.678;2023-03-18T06:51:53;98337.81;;;8.59;100.00
29903;BME280;30288;50.514;9.678;2023-03-18T06:53:59;98339.22;;;8.69;100.00
29903;BME280;30288;50.514;9.678;2023-03-18T06:56:06;98346.41;;;8.82;100.00
29903;BME280;30288;50.514;9.678;2023-03-18T06:58:26;98345.91;;;9.00;100.00
29903;BME280;30288;50.514;9.678;2023-03-18T07:00:44;98350.59;;;9.12;100.00
29903;BME280;30288;50.514;9.678;2023-03-18T07:02:57;98348.59;;;9.23;100.00
29903;BME280;30288;50.514;9.678;2023-03-18T07:05:04;98354.13;;;9.34;100.00
29903;BME280;30288;50.514;9.678;2023-03-18T07:07:10;98340.28;;;9.49;100.00
29903;BME280;30288;50.514;9.678;2023-03-18T07:09:16;98339.09;;;9.60;100.00
29903;BME280;30288;50.514;9.678;2023-03-18T07:11:26;98336.97;;;9.75;100.00
29903;BME280;30288;50.514;9.678;2023-03-18T07:13:36;98336.78;;;9.81;100.00
29903;BME280;30288;50.514;9.678;2023-03-18T07:15:51;98340.63;;;9.92;100.00
29903;BME280;30288;50.514;9.678;2023-03-18T07:17:58;98340.22;;;10.04;100.00
29903;BME280;30288;50.514;9.678;2023-03-18T07:20:07;98339.88;;;10.15;100.00
29903;BME280;30288;50.514;9.678;2023-03-18T07:22:12;98342.97;;;10.25;100.00
29903;BME280;30288;50.514;9.678;2023-03-18T07:24:19;98340.19;;;10.32;100.00
29903;BME280;30288;50.514;9.678;2023-03-18T07:26:24;98341.19;;;10.27;100.00
29903;BME280;30288;50.514;9.678;2023-03-18T07:28:30;98351.91;;;10.33;100.00
29903;BME280;30288;50.514;9.678;2023-03-18T07:30:36;98356.63;;;10.42;100.00
29903;BME280;30288;50.514;9.678;2023-03-18T07:32:44;98353.03;;;10.49;100.00
29903;BME280;30288;50.514;9.678;2023-03-18T07:34:51;98345.94;;;10.61;100.00
29903;BME280;30288;50.514;9.678;2023-03-18T07:36:56;98353.81;;;10.75;100.00
29903;BME280;30288;50.514;9.678;2023-03-18T07:39:01;98362.91;;;10.79;100.00
29903;BME280;30288;50.514;9.678;2023-03-18T07:41:06;98361.84;;;10.86;100.00
29903;BME280;30288;50.514;9.678;2023-03-18T07:43:12;98363.41;;;10.88;100.00
29903;BME280;30288;50.514;9.678;2023-03-18T07:45:18;98359.88;;;10.94;100.00
29903;BME280;30288;50.514;9.678;2023-03-18T07:47:24;98363.06;;;10.99;100.00
29903;BME280;30288;50.514;9.678;2023-03-18T07:49:31;98361.31;;;11.01;100.00
29903;BME280;30288;50.514;9.678;2023-03-18T07:51:37;98351.72;;;11.11;100.00
29903;BME280;30288;50.514;9.678;2023-03-18T07:53:42;98353.88;;;11.21;100.00
29903;BME280;30288;50.514;9.678;2023-03-18T07:55:48;98359.47;;;11.28;100.00
29903;BME280;30288;50.514;9.678;2023-03-18T07:57:53;98362.50;;;11.37;100.00
29903;BME280;30288;50.514;9.678;2023-03-18T07:59:59;98365.84;;;11.38;100.00
29903;BME280;30288;50.514;9.678;2023-03-18T08:02:14;98368.44;;;11.58;100.00
29903;BME280;30288;50.514;9.678;2023-03-18T08:04:19;98368.59;;;11.77;100.00
29903;BME280;30288;50.514;9.678;2023-03-18T08:06:27;98367.22;;;11.90;100.00
29903;BME280;30288;50.514;9.678;2023-03-18T08:08:33;98367.09;;;11.93;100.00
29903;BME280;30288;50.514;9.678;2023-03-18T08:10:38;98369.03;;;12.08;100.00
29903;BME280;30288;50.514;9.678;2023-03-18T08:12:43;98369.38;;;12.21;100.00
29903;BME280;30288;50.514;9.678;2023-03-18T08:14:54;98370.44;;;12.36;100.00
29903;BME280;30288;50.514;9.678;2023-03-18T08:17:01;98379.03;;;12.52;100.00
29903;BME280;30288;50.514;9.678;2023-03-18T08:19:06;98374.94;;;12.49;100.00
29903;BME280;30288;50.514;9.678;2023-03-18T08:21:12;98379.47;;;12.61;100.00
29903;BME280;30288;50.514;9.678;2023-03-18T08:23:19;98384.34;;;12.66;100.00
29903;BME280;30288;50.514;9.678;2023-03-18T08:25:25;98382.28;;;12.74;100.00
29903;BME280;30288;50.514;9.678;2023-03-18T08:27:30;98380.53;;;12.56;100.00
29903;BME280;30288;50.514;9.678;2023-03-18T08:29:35;98383.56;;;12.64;100.00
29903;BME280;30288;50.514;9.678;2023-03-18T08:31:40;98370.81;;;12.87;100.00
29903;BME280;30288;50.514;9.678;2023-03-18T08:33:45;98376.34;;;13.16;100.00
29903;BME280;30288;50.514;9.678;2023-03-18T08:35:50;98375.03;;;13.26;100.00
29903;BME280;30288;50.514;9.678;2023-03-18T08:37:55;98381.03;;;13.42;100.00
29903;BME280;30288;50.514;9.678;2023-03-18T08:40:05;98378.06;;;13.70;100.00
29903;BME280;30288;50.514;9.678;2023-03-18T08:42:11;98373.13;;;13.85;100.00
29903;BME280;30288;50.514;9.678;2023-03-18T08:44:17;98382.72;;;13.79;100.00
29903;BME280;30288;50.514;9.678;2023-03-18T08:46:22;98384.59;;;13.92;100.00
29903;BME280;30288;50.514;9.678;2023-03-18T08:48:27;98380.00;;;14.18;100.00
29903;BME280;30288;50.514;9.678;2023-03-18T08:50:33;98382.69;;;14.32;100.00
29903;BME280;30288;50.514;9.678;2023-03-18T08:52:38;98376.63;;;14.36;100.00
29903;BME280;30288;50.514;9.678;2023-03-18T08:54:44;98373.34;;;14.51;100.00
29903;BME280;30288;50.514;9.678;2023-03-18T08:56:51;98375.41;;;14.77;100.00
29903;BME280;30288;50.514;9.678;2023-03-18T08:58:56;98370.16;;;14.80;100.00
29903;BME280;30288;50.514;9.678;2023-03-18T09:01:01;98369.53;;;14.93;100.00
29903;BME280;30288;50.514;9.678;2023-03-18T09:03:08;98366.75;;;14.97;100.00
29903;BME280;30288;50.514;9.678;2023-03-18T09:05:13;98360.91;;;15.12;100.00
29903;BME280;30288;50.514;9.678;2023-03-18T09:07:18;98364.66;;;15.21;100.00
29903;BME280;30288;50.514;9.678;2023-03-18T09:09:23;98363.28;;;15.15;100.00
29903;BME280;30288;50.514;9.678;2023-03-18T09:11:44;98361.34;;;15.20;100.00
29903;BME280;30288;50.514;9.678;2023-03-18T09:13:53;98368.13;;;15.20;100.00
29903;BME280;30288;50.514;9.678;2023-03-18T09:15:58;98362.91;;;15.54;100.00
29903;BME280;30288;50.514;9.678;2023-03-18T09:18:04;98362.72;;;15.26;100.00
29903;BME280;30288;50.514;9.678;2023-03-18T09:20:15;98363.97;;;15.02;100.00
29903;BME280;30288;50.514;9.678;2023-03-18T09:22:21;98365.97;;;14.97;100.00
29903;BME280;30288;50.514;9.678;2023-03-18T09:24:26;98366.56;;;14.84;100.00
29903;BME280;30288;50.514;9.678;2023-03-18T09:26:31;98372.34;;;15.04;100.00
29903;BME280;30288;50.514;9.678;2023-03-18T09:28:36;98373.03;;;15.23;100.00
29903;BME280;30288;50.514;9.678;2023-03-18T09:30:44;98373.56;;;15.77;100.00
29903;BME280;30288;50.514;9.678;2023-03-18T09:32:49;98369.44;;;15.90;100.00
29903;BME280;30288;50.514;9.678;2023-03-18T09:34:55;98372.72;;;15.92;100.00
29903;BME280;30288;50.514;9.678;2023-03-18T09:37:00;98374.34;;;15.93;100.00
29903;BME280;30288;50.514;9.678;2023-03-18T09:39:06;98374.19;;;15.96;100.00
29903;BME280;30288;50.514;9.678;2023-03-18T09:41:27;98380.88;;;15.97;100.00
29903;BME280;30288;50.514;9.678;2023-03-18T09:43:51;98381.19;;;15.61;100.00
29903;BME280;30288;50.514;9.678;2023-03-18T09:46:09;98384.50;;;15.30;100.00
29903;BME280;30288;50.514;9.678;2023-03-18T09:48:47;98378.28;;;15.20;100.00
29903;BME280;30288;50.514;9.678;2023-03-18T09:51:01;98386.91;;;15.16;100.00
29903;BME280;30288;50.514;9.678;2023-03-18T09:53:18;98389.69;;;15.11;100.00
29903;BME280;30288;50.514;9.678;2023-03-18T09:55:28;98390.38;;;15.15;100.00
29903;BME280;30288;50.514;9.678;2023-03-18T09:57:44;98387.38;;;15.07;100.00
29903;BME280;30288;50.514;9.678;2023-03-18T09:59:54;98382.78;;;14.98;100.00
29903;BME280;30288;50.514;9.678;2023-03-18T10:02:13;98386.56;;;14.91;100.00
29903;BME280;30288;50.514;9.678;2023-03-18T10:04:25;98380.84;;;15.03;100.00
29903;BME280;30288;50.514;9.678;2023-03-18T10:06:32;98378.53;;;15.47;100.00
29903;BME280;30288;50.514;9.678;2023-03-18T10:08:52;98387.56;;;16.13;100.00
29903;BME280;30288;50.514;9.678;2023-03-18T10:11:05;98384.31;;;16.55;100.00
29903;BME280;30288;50.514;9.678;2023-03-18T10:13:15;98380.84;;;16.72;100.00
29903;BME280;30288;50.514;9.678;2023-03-18T10:15:33;98382.94;;;16.80;100.00
29903;BME280;30288;50.514;9.678;2023-03-18T10:17:47;98387.28;;;17.06;100.00
29903;BME280;30288;50.514;9.678;2023-03-18T10:19:58;98384.72;;;16.78;100.00
29903;BME280;30288;50.514;9.678;2023-03-18T10:22:32;98381.63;;;16.73;100.00
29903;BME280;30288;50.514;9.678;2023-03-18T10:24:47;98380.66;;;16.45;100.00
29903;BME280;30288;50.514;9.678;2023-03-18T10:27:05;98379.56;;;16.49;100.00
29903;BME280;30288;50.514;9.678;2023-03-18T10:29:27;98389.03;;;16.77;100.00
29903;BME280;30288;50.514;9.678;2023-03-18T10:31:45;98392.91;;;16.83;100.00
29903;BME280;30288;50.514;9.678;2023-03-18T10:33:58;98390.00;;;16.75;100.00
29903;BME280;30288;50.514;9.678;2023-03-18T10:36:11;98385.03;;;16.43;100.00
29903;BME280;30288;50.514;9.678;2023-03-18T10:38:24;98386.06;;;16.25;100.00
29903;BME280;30288;50.514;9.678;2023-03-18T10:40:36;98390.38;;;16.09;100.00
29903;BME280;30288;50.514;9.678;2023-03-18T10:42:43;98385.97;;;15.97;100.00
29903;BME280;30288;50.514;9.678;2023-03-18T10:44:49;98385.41;;;15.92;100.00
29903;BME280;30288;50.514;9.678;2023-03-18T10:46:59;98379.66;;;16.04;100.00
29903;BME280;30288;50.514;9.678;2023-03-18T10:49:13;98381.22;;;15.91;100.00
29903;BME280;30288;50.514;9.678;2023-03-18T10:51:25;98384.47;;;16.08;100.00
29903;BME280;30288;50.514;9.678;2023-03-18T10:53:37;98376.94;;;16.67;100.00
29903;BME280;30288;50.514;9.678;2023-03-18T10:55:54;98372.69;;;16.95;100.00
29903;BME280;30288;50.514;9.678;2023-03-18T10:58:14;98374.56;;;17.06;100.00
29903;BME280;30288;50.514;9.678;2023-03-18T11:00:27;98371.13;;;17.07;100.00
29903;BME280;30288;50.514;9.678;2023-03-18T11:02:37;98365.09;;;17.36;100.00
29903;BME280;30288;50.514;9.678;2023-03-18T11:04:49;98357.88;;;17.84;100.00
29903;BME280;30288;50.514;9.678;2023-03-18T11:06:57;98356.72;;;18.02;100.00
29903;BME280;30288;50.514;9.678;2023-03-18T11:09:07;98357.31;;;18.06;100.00
29903;BME280;30288;50.514;9.678;2023-03-18T11:11:24;98351.66;;;18.15;100.00
29903;BME280;30288;50.514;9.678;2023-03-18T11:13:30;98349.44;;;18.35;100.00
29903;BME280;30288;50.514;9.678;2023-03-18T11:15:38;98347.63;;;18.63;100.00
29903;BME280;30288;50.514;9.678;2023-03-18T11:17:47;98347.25;;;18.56;100.00
29903;BME280;30288;50.514;9.678;2023-03-18T11:20:12;98350.06;;;18.77;100.00